Time;durP1;ratioP1;P1;durP2;ratioP2;P2;SDS_P1;SDS_P2;PMS_P1;PMS_P2;Temp;Humidity;BMP_temperature;BMP_pressure;BME280_temperature;BME280_humidity;BME280_pressure;Samples;Min_cycle;Max_cycle;Signal;HPM_P1;HPM_P2
2022/08/24 08:02:00;;;;;;;17.03;14.37;;;;;;;23.11;72.11;101655.75;5175934;27;4693727;-77
2022/08/24 08:04:44;;;;;;;16.48;13.05;;;;;;;23.20;70.73;101652.78;5323296;28;20622;-78
2022/08/24 08:07:16;;;;;;;14.13;12.45;;;;;;;23.26;70.20;101654.19;5322500;28;20371;-77
2022/08/24 08:09:48;;;;;;;14.80;12.20;;;;;;;23.35;69.73;101660.53;5323072;28;20125;-78
2022/08/24 08:12:19;;;;;;;16.35;13.05;;;;;;;23.40;69.76;101653.81;5322612;28;20077;-76
2022/08/24 08:14:50;;;;;;;15.13;13.63;;;;;;;23.46;69.87;101660.03;5322082;28;20028;-78
2022/08/24 08:17:22;;;;;;;51.85;47.08;;;;;;;23.51;70.06;101656.97;5322464;28;20019;-78
2022/08/24 08:19:53;;;;;;;29.40;16.05;;;;;;;23.59;69.28;101659.63;5321624;28;20031;-76
2022/08/24 08:25:17;;;;;;;13.55;10.95;;;;;;;23.75;68.08;101662.56;5322872;28;20394;-76
2022/08/24 08:27:48;;;;;;;10.45;9.18;;;;;;;23.95;67.26;101659.88;5321953;28;20031;-77
2022/08/24 08:30:19;;;;;;;10.98;9.48;;;;;;;24.06;65.58;101664.66;5322333;28;20028;-75
2022/08/24 08:32:51;;;;;;;19.55;17.55;;;;;;;24.12;66.06;101655.91;5322873;28;20016;-77
2022/08/24 08:35:22;;;;;;;11.10;9.60;;;;;;;24.23;65.96;101654.97;5321483;28;20023;-75
2022/08/24 08:37:56;;;;;;;11.43;7.25;;;;;;;24.48;65.77;101660.53;5322594;28;20020;-76
2022/08/24 08:41:18;;;;;;;7.07;6.38;;;;;;;24.62;64.61;101658.06;5322015;28;20373;-77
2022/08/24 08:44:04;;;;;;;8.60;6.10;;;;;;;24.74;63.58;101657.94;5278649;28;20463;-76
2022/08/24 08:46:36;;;;;;;9.88;6.22;;;;;;;24.85;62.68;101657.38;5321856;28;20485;-76
2022/08/24 08:49:22;;;;;;;6.68;6.05;;;;;;;24.87;62.38;101655.00;5321994;28;20032;-76
2022/08/24 08:52:02;;;;;;;6.97;5.22;;;;;;;24.89;61.42;101666.81;5322001;28;20016;-76
2022/08/24 08:54:47;;;;;;;10.07;5.40;;;;;;;25.01;61.18;101665.91;5323600;28;20028;-75
2022/08/24 08:57:34;;;;;;;7.65;4.88;;;;;;;25.13;60.90;101660.06;5323969;28;20027;-75
2022/08/24 09:00:16;;;;;;;7.90;4.35;;;;;;;25.37;59.19;101659.06;5323081;28;20064;-75
2022/08/24 09:03:01;;;;;;;7.00;4.25;;;;;;;25.26;59.05;101667.34;5322571;28;20035;-73
2022/08/24 09:05:53;;;;;;;7.23;5.27;;;;;;;25.19;59.30;101660.66;5322684;28;20351;-76
2022/08/24 09:08:50;;;;;;;5.72;3.40;;;;;;;25.30;58.04;101667.41;5321483;28;20027;-77
2022/08/24 09:11:32;;;;;;;4.55;3.00;;;;;;;25.32;56.39;101670.69;5317360;28;20028;-78
2022/08/24 09:14:17;;;;;;;4.35;3.80;;;;;;;25.37;56.22;101667.56;5307308;28;20067;-77
2022/08/24 09:17:07;;;;;;;3.35;3.00;;;;;;;25.35;56.48;101665.09;5306254;28;20115;-75
2022/08/24 09:19:58;;;;;;;7.45;3.42;;;;;;;25.33;56.99;101672.31;5306426;28;20192;-76
2022/08/24 09:22:38;;;;;;;7.57;3.75;;;;;;;25.36;57.43;101668.75;5307372;28;20023;-76
2022/08/24 09:25:36;;;;;;;6.75;3.40;;;;;;;25.45;57.19;101660.84;5306292;28;20085;-77
2022/08/24 09:28:29;;;;;;;4.18;3.78;;;;;;;25.52;57.22;101663.84;5306459;28;20039;-76
2022/08/24 09:31:25;;;;;;;5.53;3.42;;;;;;;25.57;57.09;101669.22;5306557;28;20058;-79
2022/08/24 09:34:06;;;;;;;5.28;3.60;;;;;;;25.60;56.34;101671.31;5306784;28;20028;-78
2022/08/24 09:36:47;;;;;;;3.55;2.85;;;;;;;25.70;55.82;101663.41;5299537;28;20028;-77
2022/08/24 09:39:45;;;;;;;3.75;2.80;;;;;;;25.74;56.16;101669.97;5284873;28;20480;-79
2022/08/24 09:42:35;;;;;;;4.13;2.72;;;;;;;25.94;55.42;101668.78;5280608;28;20039;-78
2022/08/24 09:45:57;;;;;;;3.38;2.55;;;;;;;25.90;55.23;101670.75;5300831;28;20031;-80
2022/08/24 09:48:59;;;;;;;11.27;9.90;;;;;;;26.05;55.05;101662.50;5261367;28;20043;-78
2022/08/24 09:51:49;;;;;;;5.47;4.30;;;;;;;26.07;55.14;101666.59;5305266;28;20073;-78
2022/08/24 09:54:49;;;;;;;5.53;3.25;;;;;;;26.16;55.29;101669.22;5306547;28;20089;-78
2022/08/24 09:57:29;;;;;;;4.28;2.70;;;;;;;26.30;54.86;101660.94;5306186;28;20097;-78
2022/08/24 10:00:13;;;;;;;4.25;3.10;;;;;;;26.51;54.49;101671.06;5305237;28;20079;-77
2022/08/24 10:03:04;;;;;;;6.07;3.00;;;;;;;26.53;54.70;101666.66;5305813;28;20028;-77
2022/08/24 10:05:54;;;;;;;5.38;3.63;;;;;;;26.57;54.12;101672.44;5305334;28;20379;-78
2022/08/24 10:08:53;;;;;;;3.65;3.05;;;;;;;26.66;53.74;101658.75;5306125;28;20024;-73
2022/08/24 10:11:43;;;;;;;4.78;2.90;;;;;;;26.66;54.07;101655.91;5287495;28;20043;-74
2022/08/24 10:14:36;;;;;;;7.88;6.68;;;;;;;26.62;53.59;101658.72;5305044;28;20035;-73
2022/08/24 10:17:22;;;;;;;3.35;2.55;;;;;;;26.75;53.26;101653.63;5305786;28;20047;-75
2022/08/24 10:20:06;;;;;;;3.47;3.15;;;;;;;26.80;52.54;101659.00;5283663;28;20468;-73
2022/08/24 10:22:40;;;;;;;2.80;2.50;;;;;;;26.71;52.03;101655.59;5296809;28;20382;-75
2022/08/24 10:25:21;;;;;;;5.05;2.33;;;;;;;26.58;52.26;101651.31;5304509;28;20062;-74
2022/08/24 10:28:06;;;;;;;24.83;23.00;;;;;;;26.41;52.80;101646.94;5286644;28;20116;-73
2022/08/24 10:31:07;;;;;;;24.75;22.35;;;;;;;26.40;53.08;101646.09;5284443;28;20386;-73
2022/08/24 10:34:16;;;;;;;12.00;3.95;;;;;;;26.39;53.40;101643.66;5283568;28;20021;-73
2022/08/24 10:37:13;;;;;;;3.88;3.00;;;;;;;26.41;53.46;101650.59;5304777;28;20055;-73
2022/08/24 10:40:11;;;;;;;4.43;2.60;;;;;;;26.46;53.01;101649.47;5305403;28;20020;-74
2022/08/24 10:45:59;;;;;;;4.32;2.50;;;;;;;26.61;52.54;101644.84;5305389;28;20434;-74
2022/08/24 10:48:30;;;;;;;5.22;2.85;;;;;;;26.85;52.07;101635.09;5304199;28;20093;-75
2022/08/24 10:51:39;;;;;;;4.00;2.70;;;;;;;26.82;51.05;101635.88;5304806;28;20032;-74
2022/08/24 10:54:12;;;;;;;2.90;2.38;;;;;;;26.85;50.96;101638.75;5284033;28;20688;-74
2022/08/24 10:57:05;;;;;;;3.72;2.38;;;;;;;26.84;51.14;101637.13;5283326;28;20111;-75
2022/08/24 11:00:03;;;;;;;4.00;3.08;;;;;;;26.93;51.04;101631.16;5283606;28;20025;-76
2022/08/24 11:02:38;;;;;;;4.22;2.08;;;;;;;27.16;50.74;101630.28;5283247;28;20036;-75
2022/08/24 11:05:16;;;;;;;13.50;11.02;;;;;;;27.39;50.85;101628.19;5283740;28;20028;-75
2022/08/24 11:07:59;;;;;;;4.85;2.72;;;;;;;27.37;49.64;101627.72;5283914;28;20124;-73
2022/08/24 11:10:34;;;;;;;6.88;4.10;;;;;;;27.16;50.53;101628.25;5302149;28;20032;-75
2022/08/24 11:13:22;;;;;;;;;;;;;;;27.29;51.18;101623.97;5305139;28;20088;-75
2022/08/24 11:15:58;;;;;;;15.45;13.93;;;;;;;27.46;49.49;101621.75;5302726;28;19918;-75
2022/08/24 11:18:48;;;;;;;11.55;3.22;;;;;;;27.51;49.69;101619.38;5265518;28;20108;-74
2022/08/24 11:21:43;;;;;;;3.92;2.60;;;;;;;27.61;49.40;101615.03;5283217;28;20036;-74
2022/08/24 11:24:17;;;;;;;4.07;2.30;;;;;;;27.71;48.68;101614.34;5283176;28;20021;-75
2022/08/24 11:26:54;;;;;;;4.18;2.90;;;;;;;27.82;48.31;101619.38;5297137;28;20378;-74
2022/08/24 11:29:46;;;;;;;4.50;2.88;;;;;;;27.81;48.43;101612.81;5304683;28;20328;-74
2022/08/24 11:32:31;;;;;;;5.13;2.85;;;;;;;27.70;49.16;101606.16;5304570;28;20033;-76
2022/08/24 11:35:22;;;;;;;3.20;2.80;;;;;;;27.72;48.87;101600.91;5304232;28;20024;-75
2022/08/24 11:38:01;;;;;;;5.50;2.50;;;;;;;27.65;48.48;101610.19;5303411;28;20390;-76
2022/08/24 11:40:38;;;;;;;4.57;2.90;;;;;;;27.58;48.82;101612.13;5304080;28;20438;-75
2022/08/24 11:43:37;;;;;;;3.08;2.45;;;;;;;27.67;48.18;101609.81;5303821;28;20070;-74
2022/08/24 11:46:35;;;;;;;4.60;3.22;;;;;;;27.64;48.56;101604.88;5304467;28;20032;-75
2022/08/24 11:49:22;;;;;;;4.38;2.33;;;;;;;27.80;48.98;101601.81;5304003;28;20464;-72
2022/08/24 11:52:14;;;;;;;4.82;2.80;;;;;;;27.89;48.85;101599.47;5292268;28;20086;-74
2022/08/24 11:55:21;;;;;;;5.45;3.10;;;;;;;27.92;48.29;101598.72;5304395;28;20528;-74
2022/08/24 11:58:01;;;;;;;6.38;2.75;;;;;;;27.89;48.22;101602.31;5303314;28;20028;-75
2022/08/24 12:00:53;;;;;;;4.65;3.17;;;;;;;27.78;48.11;101592.81;5303489;28;20048;-75
2022/08/24 12:03:27;;;;;;;4.22;2.85;;;;;;;27.71;48.27;101594.41;5304440;28;20052;-75
2022/08/24 12:06:25;;;;;;;4.60;2.45;;;;;;;27.75;48.85;101588.72;5303685;28;20024;-77
2022/08/24 12:09:11;;;;;;;3.40;2.58;;;;;;;27.84;48.39;101592.13;5304519;28;20077;-76
2022/08/24 12:11:55;;;;;;;4.88;2.60;;;;;;;28.04;48.20;101598.41;5302176;28;20396;-75
2022/08/24 12:14:45;;;;;;;3.88;2.67;;;;;;;27.95;48.15;101597.94;5304602;28;20036;-74
2022/08/24 12:17:32;;;;;;;3.42;2.70;;;;;;;27.94;48.56;101597.13;5303755;28;20494;-74
2022/08/24 12:20:26;;;;;;;4.05;2.83;;;;;;;28.11;48.25;101594.81;5302841;28;20379;-75
2022/08/24 12:23:06;;;;;;;4.57;3.10;;;;;;;28.15;48.27;101593.66;5300636;28;20036;-75
2022/08/24 12:28:34;;;;;;;11.98;10.93;;;;;;;28.36;47.65;101590.16;5304369;28;20104;-76
2022/08/24 12:31:19;;;;;;;5.95;3.17;;;;;;;28.51;47.14;101591.16;5303626;28;20097;-76
2022/08/24 12:33:56;;;;;;;7.28;2.60;;;;;;;28.58;46.54;101591.19;5303104;28;20134;-75
2022/08/24 12:36:37;;;;;;;5.20;2.47;;;;;;;28.59;45.96;101578.56;5285937;28;20103;-75
2022/08/24 12:39:18;;;;;;;6.38;3.05;;;;;;;28.79;46.12;101576.25;5303794;28;20093;-74
2022/08/24 12:42:14;;;;;;;3.38;2.90;;;;;;;29.10;46.87;101581.78;5300684;28;20044;-76
2022/08/24 12:44:53;;;;;;;2.75;2.42;;;;;;;29.51;46.50;101581.53;5302432;28;20178;-76
2022/08/24 12:47:41;;;;;;;4.65;2.67;;;;;;;29.43;45.54;101577.84;5304850;28;20024;-77
2022/08/24 12:50:21;;;;;;;5.80;3.22;;;;;;;29.40;45.27;101568.03;5307280;28;20085;-77
2022/08/24 12:53:25;;;;;;;2.40;2.20;;;;;;;29.74;45.16;101562.03;5306890;28;20049;-76
2022/08/24 12:56:34;;;;;;;5.00;2.70;;;;;;;29.89;44.46;101566.56;5306623;28;20073;-76
2022/08/24 12:59:20;;;;;;;3.53;2.63;;;;;;;29.86;44.81;101572.25;5306279;28;20028;-78
2022/08/24 13:02:00;;;;;;;3.88;2.30;;;;;;;30.03;44.12;101570.66;5305191;28;20048;-82
2022/08/24 13:04:52;;;;;;;2.70;2.40;;;;;;;30.11;43.58;101563.72;5312385;28;20048;-82
2022/08/24 13:07:23;;;;;;;3.53;2.20;;;;;;;30.07;40.80;101565.78;5312567;28;20031;-80
2022/08/24 13:09:55;;;;;;;3.50;2.27;;;;;;;30.09;40.35;101567.00;5312881;28;20035;-81
2022/08/24 13:12:29;;;;;;;5.72;2.25;;;;;;;30.20;40.52;101561.28;5310548;28;20028;-80
2022/08/24 13:15:18;;;;;;;3.37;2.13;;;;;;;30.36;41.42;101565.81;5306829;28;20382;-76
2022/08/24 13:17:57;;;;;;;6.35;2.67;;;;;;;30.10;41.58;101560.03;5307113;28;20032;-80
2022/08/24 13:20:48;;;;;;;10.77;3.10;;;;;;;30.21;41.58;101559.22;5306491;28;20378;-77
2022/08/24 13:23:21;;;;;;;4.75;2.30;;;;;;;30.19;42.03;101555.97;5306126;28;20085;-77
2022/08/24 13:26:13;;;;;;;7.13;2.80;;;;;;;30.46;42.56;101553.53;5306634;28;20020;-78
2022/08/24 13:28:51;;;;;;;3.30;2.53;;;;;;;30.40;42.34;101549.44;5306427;28;20035;-76
2022/08/24 13:31:37;;;;;;;7.80;2.80;;;;;;;30.53;42.46;101553.53;5305750;28;20439;-76
2022/08/24 13:34:08;;;;;;;;;;;;;;;30.77;42.52;101552.66;5310080;28;20051;-81
2022/08/24 13:37:09;;;;;;;7.03;6.43;;;;;;;30.88;42.44;101552.66;5307052;28;20326;-80
2022/08/24 13:40:09;;;;;;;34.08;30.90;;;;;;;30.93;41.98;101552.22;5307954;28;20016;-82
2022/08/24 13:42:49;;;;;;;4.22;2.78;;;;;;;30.89;41.55;101554.31;5307632;28;20036;-82
2022/08/24 13:45:33;;;;;;;4.05;2.72;;;;;;;31.03;41.07;101559.16;5307759;28;20024;-81
2022/08/24 13:48:07;;;;;;;3.15;2.67;;;;;;;30.74;41.29;101546.94;5308156;28;20082;-78
2022/08/24 13:51:19;;;;;;;2.97;2.53;;;;;;;30.63;41.19;101543.28;5305868;28;20032;-77
2022/08/24 13:54:19;;;;;;;5.75;3.10;;;;;;;30.61;41.60;101537.97;5307363;28;20044;-79
2022/08/24 13:57:06;;;;;;;4.43;2.75;;;;;;;30.33;41.72;101535.97;5304865;28;20028;-79
2022/08/24 14:00:09;;;;;;;5.32;2.05;;;;;;;30.00;41.66;101531.44;5303153;28;20506;-79
2022/08/24 14:03:11;;;;;;;7.13;3.00;;;;;;;30.00;42.49;101531.44;5305552;28;20034;-75
2022/08/24 14:05:46;;;;;;;5.03;2.80;;;;;;;29.90;41.40;101536.75;5305369;28;20031;-75
2022/08/24 14:08:24;;;;;;;3.40;2.25;;;;;;;29.83;41.83;101533.06;5316410;28;20035;-80
2022/08/24 14:11:02;;;;;;;4.10;2.00;;;;;;;30.06;40.81;101527.75;5314685;28;20427;-81
2022/08/24 14:13:48;;;;;;;3.70;2.17;;;;;;;30.38;40.82;101532.69;5313359;28;20395;-80
2022/08/24 14:19:31;;;;;;;4.28;2.25;;;;;;;30.85;39.74;101530.59;5320833;28;20036;-81
2022/08/24 14:22:28;;;;;;;2.92;1.85;;;;;;;31.04;38.08;101523.59;5320926;28;20036;-79
2022/08/24 14:25:12;;;;;;;4.63;3.13;;;;;;;31.17;37.98;101527.59;5313616;28;20348;-79
2022/08/24 14:27:44;;;;;;;4.60;2.70;;;;;;;31.08;37.81;101518.63;5284956;28;20460;-79
2022/08/24 14:30:18;;;;;;;3.42;1.77;;;;;;;31.15;37.81;101515.75;5297167;28;20042;-82
2022/08/24 14:32:58;;;;;;;4.25;2.10;;;;;;;31.06;37.99;101517.41;5305216;28;20024;-79
2022/08/24 14:35:55;;;;;;;3.47;1.90;;;;;;;31.07;38.40;101516.22;5305826;28;20043;-78
2022/08/24 14:38:51;;;;;;;2.85;2.13;;;;;;;31.14;37.88;101519.84;5304845;28;20036;-79
2022/08/24 14:41:40;;;;;;;7.20;4.45;;;;;;;31.14;39.32;101502.66;5306360;28;20036;-81
2022/08/24 14:44:19;;;;;;;5.40;2.45;;;;;;;31.16;38.86;101510.81;5306539;28;20096;-82
2022/08/24 14:46:59;;;;;;;3.60;2.67;;;;;;;31.01;39.21;101500.66;5304985;28;20137;-80
2022/08/24 14:49:43;;;;;;;5.57;5.07;;;;;;;30.93;38.83;101499.88;5305576;28;20024;-80
2022/08/24 14:52:29;;;;;;;3.15;2.83;;;;;;;31.01;38.89;101498.63;5305258;28;20115;-75
2022/08/24 14:55:14;;;;;;;3.13;2.80;;;;;;;31.03;38.88;101495.34;5304345;28;20023;-76
2022/08/24 14:58:03;;;;;;;3.97;2.70;;;;;;;31.02;39.27;101488.00;5305263;28;20028;-76
2022/08/24 15:00:57;;;;;;;5.25;2.92;;;;;;;30.88;39.39;101491.72;5304021;28;20132;-80
2022/08/24 15:03:52;;;;;;;2.90;2.10;;;;;;;30.89;38.86;101490.50;5305471;28;20104;-80
2022/08/24 15:06:38;;;;;;;3.90;2.70;;;;;;;30.88;38.90;101495.38;5305491;28;20028;-80
2022/08/24 15:09:10;;;;;;;15.05;13.70;;;;;;;30.89;39.37;101491.31;5305895;28;20059;-81
2022/08/24 15:11:41;;;;;;;5.57;3.42;;;;;;;30.94;38.40;101495.81;5307455;28;20051;-80
2022/08/24 15:14:27;;;;;;;4.38;2.30;;;;;;;30.90;38.36;101492.13;5306071;28;20031;-78
2022/08/24 15:17:14;;;;;;;3.38;2.40;;;;;;;30.96;38.83;101496.19;5304465;28;20028;-78
2022/08/24 15:19:45;;;;;;;4.63;2.30;;;;;;;30.77;39.13;101492.53;5304885;28;20106;-78
2022/08/24 15:22:35;;;;;;;3.37;2.43;;;;;;;30.68;39.70;101489.31;5304076;28;20104;-80
2022/08/24 15:25:35;;;;;;;3.40;2.50;;;;;;;30.60;39.98;101490.53;5303529;28;20306;-79
2022/08/24 15:28:13;;;;;;;8.13;5.82;;;;;;;30.48;40.38;101485.28;5305015;28;20387;-79
2022/08/24 15:30:59;;;;;;;4.95;3.10;;;;;;;30.41;40.24;101483.22;5305524;28;20397;-80
2022/08/24 15:33:32;;;;;;;3.30;2.40;;;;;;;30.41;40.34;101485.28;5307036;28;20481;-78
2022/08/24 15:36:10;;;;;;;4.38;2.20;;;;;;;30.28;40.15;101482.84;5303841;28;20059;-73
2022/08/24 15:38:44;;;;;;;2.78;2.33;;;;;;;30.38;40.29;101478.34;5304280;28;20043;-75
2022/08/24 15:41:22;;;;;;;4.70;1.95;;;;;;;30.37;40.72;101476.69;5304050;28;20032;-74
2022/08/24 15:44:22;;;;;;;7.10;2.40;;;;;;;30.43;40.36;101474.25;5303878;28;20030;-80
2022/08/24 15:47:01;;;;;;;3.40;2.33;;;;;;;30.37;41.03;101468.09;5308068;28;20378;-79
2022/08/24 15:49:52;;;;;;;4.10;2.30;;;;;;;30.31;40.43;101462.00;5308171;28;20031;-79
2022/08/24 15:52:54;;;;;;;5.13;3.00;;;;;;;30.41;40.48;101470.97;5305241;28;20024;-79
2022/08/24 15:55:36;;;;;;;4.13;2.35;;;;;;;30.53;40.01;101473.41;5305440;28;20035;-80
2022/08/24 15:58:19;;;;;;;6.25;2.25;;;;;;;30.43;39.97;101477.09;5304176;28;20030;-75
2022/08/24 16:03:53;;;;;;;4.82;2.38;;;;;;;30.56;39.63;101466.84;5303504;28;20475;-75
2022/08/24 16:06:31;;;;;;;2.83;2.20;;;;;;;30.80;39.59;101470.03;5304064;28;20028;-75
2022/08/24 16:09:05;;;;;;;20.30;18.10;;;;;;;30.78;39.15;101464.72;5303914;28;20028;-75
2022/08/24 16:11:47;;;;;;;5.78;2.58;;;;;;;30.72;39.34;101461.47;5291492;28;20025;-75
2022/08/24 16:14:37;;;;;;;7.03;2.17;;;;;;;30.69;39.19;101461.50;5303757;28;20024;-75
2022/08/24 16:17:32;;;;;;;12.50;11.43;;;;;;;30.63;38.86;101466.84;5282887;28;20391;-73
2022/08/24 16:20:16;;;;;;;10.23;8.88;;;;;;;30.65;39.30;101457.81;5282132;28;20568;-74
2022/08/24 16:22:58;;;;;;;49.10;44.05;;;;;;;30.79;39.18;101468.41;5286213;28;20029;-74
2022/08/24 16:25:37;;;;;;;3.50;2.40;;;;;;;30.72;38.72;101461.47;5286228;28;20028;-74
2022/08/24 16:28:20;;;;;;;5.03;2.42;;;;;;;30.85;38.95;101461.06;5293048;28;20109;-74
2022/08/24 16:30:53;;;;;;;8.63;6.25;;;;;;;30.87;39.22;101464.31;5307813;28;20035;-73
2022/08/24 16:33:33;;;;;;;4.47;2.22;;;;;;;30.68;39.23;101454.97;5307104;28;20080;-75
2022/08/24 16:36:10;;;;;;;4.45;2.20;;;;;;;30.77;38.97;101466.78;5308178;28;20059;-73
2022/08/24 16:38:47;;;;;;;5.30;3.17;;;;;;;30.67;38.55;101461.91;5307710;28;20048;-73
2022/08/24 16:41:23;;;;;;;5.30;2.60;;;;;;;30.83;38.70;101466.38;5306911;28;20093;-74
2022/08/24 16:43:54;;;;;;;6.70;2.33;;;;;;;30.86;38.29;101462.69;5307244;28;20352;-74
2022/08/24 16:46:25;;;;;;;3.15;2.83;;;;;;;30.61;38.81;101457.03;5307132;28;20034;-74
2022/08/24 16:48:57;;;;;;;4.65;2.05;;;;;;;30.68;38.31;101459.84;5307311;28;20020;-74
2022/08/24 16:51:29;;;;;;;3.88;2.30;;;;;;;30.67;38.58;101459.03;5306957;28;20470;-72
2022/08/24 16:54:00;;;;;;;3.42;2.00;;;;;;;30.65;38.34;101454.94;5306725;28;20081;-74
2022/08/24 16:56:32;;;;;;;7.20;2.38;;;;;;;30.72;38.46;101457.81;5307507;28;20491;-74
2022/08/24 16:59:03;;;;;;;7.43;2.22;;;;;;;30.75;38.24;101456.97;5306193;28;20441;-75
2022/08/24 17:01:35;;;;;;;4.95;2.22;;;;;;;30.79;38.93;101459.84;5306281;28;20036;-73
2022/08/24 17:04:06;;;;;;;3.83;2.08;;;;;;;30.57;39.87;101459.06;5300358;28;20039;-74
2022/08/24 17:06:39;;;;;;;4.85;2.33;;;;;;;30.51;39.78;101452.97;5298526;28;20020;-73
2022/08/24 17:09:10;;;;;;;5.95;3.75;;;;;;;30.38;40.00;101463.22;5306381;28;20028;-74
2022/08/24 17:11:42;;;;;;;4.68;2.60;;;;;;;30.27;40.19;101455.47;5306938;28;20077;-73
2022/08/24 17:14:14;;;;;;;6.55;2.13;;;;;;;30.20;40.66;101449.72;5306618;28;20149;-73
2022/08/24 17:16:46;;;;;;;4.15;2.40;;;;;;;30.11;40.94;101452.19;5306894;28;20519;-73
2022/08/24 17:19:19;;;;;;;7.93;2.10;;;;;;;30.09;40.95;101449.75;5306877;28;20111;-74
2022/08/24 17:21:50;;;;;;;4.18;2.30;;;;;;;30.01;41.17;101458.72;5306091;28;20089;-72
2022/08/24 17:24:22;;;;;;;2.78;2.20;;;;;;;29.89;41.66;101454.25;5302034;28;20024;-72
2022/08/24 17:26:54;;;;;;;4.55;2.10;;;;;;;29.85;42.31;101457.09;5285881;28;20147;-72
2022/08/24 17:29:26;;;;;;;2.80;2.17;;;;;;;29.82;42.48;101455.06;5294732;28;20020;-73
2022/08/24 17:31:58;;;;;;;4.03;2.10;;;;;;;29.78;42.83;101457.09;5305374;28;20020;-73
